GMMX Airport Information

Runway Information
Runway 10 Length 10170 ft width 148 ft
Elevation 1506 ft Threshold 918 ft Heading 96
Runway 28 Length 10170 ft Width 148 ft
Elevation 1545 ft Threshold 0 ft Heading 276
Airport Frequencies
Type APP Name MARRAKECH Frequency 119.7 MHZ
Type TWR Name MARRAKECH Frequency 118.7 MHZ
Airport Navaids
Type NDB Name Marrakech Frequency 267 KHZ
Type VOR-DME Name Marrakech Frequency 113300 KHZ
Airport Weather Information & NOTAM
ADDS - METARS form results

(0315 UTC 23 January 2022)
Data provider http://aviationweather.gov/metar/data/
 
METAR text: GMMX 230300Z 24010KT 8000 BKN100 14/04 Q1019 NOSIG
Conditions at: GMMX (MARRAKECH/MENARA, MA) observed 0300 UTC 23 January 2022
Temperature: 14.0°C (57°F)
Dewpoint: 4.0°C (39°F) [RH = 51%]
Pressure (altimeter): 30.09 inches Hg (1019.0 mb)
Winds: from the WSW (240 degrees) at 12 MPH (10 knots; 5.1 m/s)
Visibility: 5 miles ( 8 km)
Ceiling: 10000 feet AGL
Clouds: broken clouds at 10000 feet AGL
Weather: no significant weather observed at this time

METAR text: GMMX 230230Z 23008KT 8000 BKN100 15/04 Q1019 NOSIG
Conditions at: GMMX (MARRAKECH/MENARA, MA) observed 0230 UTC 23 January 2022
Temperature: 15.0°C (59°F)
Dewpoint: 4.0°C (39°F) [RH = 48%]
Pressure (altimeter): 30.09 inches Hg (1019.0 mb)
Winds: from the SW (230 degrees) at 9 MPH (8 knots; 4.1 m/s)
Visibility: 5 miles ( 8 km)
Ceiling: 10000 feet AGL
Clouds: broken clouds at 10000 feet AGL
Weather: no significant weather observed at this time

Forecast for: GMMX (MARRAKECH/MENARA, MA)
Text: TAF GMMX 222300Z 2300/2406 24005KT 8000 SCT100
Forecast period: 0000 UTC 23 January 2022 to 0600 UTC 24 January 2022
Forecast type: FROM: standard forecast or significant change
Winds: from the WSW (240 degrees) at 6 MPH (5 knots; 2.6 m/s)
Visibility: 5 miles (8 km)
Ceiling: at least 12,000 feet AGL
Clouds: scattered clouds at 10000 feet AGL
Weather: no significant weather forecast for this period